sensor_id;sensor_type;location;lat;lon;timestamp;P1;durP1;ratioP1;P2;durP2;ratioP2
3006;SDS011;1513;47.650;10.720;2023-03-01T00:01:40;57.23;;;21.13;;
3006;SDS011;1513;47.650;10.720;2023-03-01T00:04:07;60.10;;;21.80;;
3006;SDS011;1513;47.650;10.720;2023-03-01T00:06:33;54.60;;;20.93;;
3006;SDS011;1513;47.650;10.720;2023-03-01T00:08:59;56.97;;;20.67;;
3006;SDS011;1513;47.650;10.720;2023-03-01T00:11:27;64.03;;;22.33;;
3006;SDS011;1513;47.650;10.720;2023-03-01T00:13:55;57.73;;;19.90;;
3006;SDS011;1513;47.650;10.720;2023-03-01T00:16:24;44.40;;;18.50;;
3006;SDS011;1513;47.650;10.720;2023-03-01T00:18:55;46.57;;;17.73;;
3006;SDS011;1513;47.650;10.720;2023-03-01T00:21:23;47.93;;;17.90;;
3006;SDS011;1513;47.650;10.720;2023-03-01T00:23:49;56.13;;;20.17;;
3006;SDS011;1513;47.650;10.720;2023-03-01T00:26:16;46.13;;;17.70;;
3006;SDS011;1513;47.650;10.720;2023-03-01T00:28:44;51.93;;;19.20;;
3006;SDS011;1513;47.650;10.720;2023-03-01T00:31:12;48.23;;;19.03;;
3006;SDS011;1513;47.650;10.720;2023-03-01T00:33:43;60.23;;;20.97;;
3006;SDS011;1513;47.650;10.720;2023-03-01T00:36:10;55.83;;;20.43;;
3006;SDS011;1513;47.650;10.720;2023-03-01T00:38:38;54.13;;;18.73;;
3006;SDS011;1513;47.650;10.720;2023-03-01T00:41:06;56.57;;;20.63;;
3006;SDS011;1513;47.650;10.720;2023-03-01T00:43:34;56.67;;;19.17;;
3006;SDS011;1513;47.650;10.720;2023-03-01T00:46:04;51.40;;;19.50;;
3006;SDS011;1513;47.650;10.720;2023-03-01T00:48:32;53.93;;;18.87;;
3006;SDS011;1513;47.650;10.720;2023-03-01T00:51:09;56.93;;;18.70;;
3006;SDS011;1513;47.650;10.720;2023-03-01T00:53:37;51.73;;;19.33;;
3006;SDS011;1513;47.650;10.720;2023-03-01T00:56:04;54.00;;;19.40;;
3006;SDS011;1513;47.650;10.720;2023-03-01T00:58:31;47.67;;;17.87;;
3006;SDS011;1513;47.650;10.720;2023-03-01T01:00:57;51.87;;;19.40;;
3006;SDS011;1513;47.650;10.720;2023-03-01T01:03:24;56.17;;;19.20;;
3006;SDS011;1513;47.650;10.720;2023-03-01T01:05:51;47.83;;;18.63;;
3006;SDS011;1513;47.650;10.720;2023-03-01T01:08:18;50.07;;;18.97;;
3006;SDS011;1513;47.650;10.720;2023-03-01T01:10:45;51.10;;;19.17;;
3006;SDS011;1513;47.650;10.720;2023-03-01T01:13:12;47.97;;;19.13;;
3006;SDS011;1513;47.650;10.720;2023-03-01T01:15:39;46.50;;;18.50;;
3006;SDS011;1513;47.650;10.720;2023-03-01T01:18:05;51.47;;;18.33;;
3006;SDS011;1513;47.650;10.720;2023-03-01T01:20:32;51.67;;;18.73;;
3006;SDS011;1513;47.650;10.720;2023-03-01T01:23:00;50.53;;;18.70;;
3006;SDS011;1513;47.650;10.720;2023-03-01T01:25:26;54.60;;;18.20;;
3006;SDS011;1513;47.650;10.720;2023-03-01T01:27:53;56.33;;;19.30;;
3006;SDS011;1513;47.650;10.720;2023-03-01T01:30:19;50.33;;;19.90;;
3006;SDS011;1513;47.650;10.720;2023-03-01T01:32:45;59.80;;;21.23;;
3006;SDS011;1513;47.650;10.720;2023-03-01T01:35:11;55.83;;;20.73;;
3006;SDS011;1513;47.650;10.720;2023-03-01T01:37:38;54.93;;;19.70;;
3006;SDS011;1513;47.650;10.720;2023-03-01T01:40:04;61.80;;;23.20;;
3006;SDS011;1513;47.650;10.720;2023-03-01T01:42:31;57.57;;;21.40;;
3006;SDS011;1513;47.650;10.720;2023-03-01T01:47:50;62.80;;;22.03;;
3006;SDS011;1513;47.650;10.720;2023-03-01T01:50:17;62.23;;;22.37;;
3006;SDS011;1513;47.650;10.720;2023-03-01T01:52:44;57.47;;;20.97;;
3006;SDS011;1513;47.650;10.720;2023-03-01T01:55:16;61.50;;;21.17;;
3006;SDS011;1513;47.650;10.720;2023-03-01T01:57:47;62.90;;;23.23;;
3006;SDS011;1513;47.650;10.720;2023-03-01T02:00:20;56.43;;;20.00;;
3006;SDS011;1513;47.650;10.720;2023-03-01T02:02:49;54.60;;;20.30;;
3006;SDS011;1513;47.650;10.720;2023-03-01T02:08:23;56.27;;;21.53;;
3006;SDS011;1513;47.650;10.720;2023-03-01T02:10:52;53.63;;;20.10;;
3006;SDS011;1513;47.650;10.720;2023-03-01T02:13:18;50.10;;;18.97;;
3006;SDS011;1513;47.650;10.720;2023-03-01T02:15:45;54.90;;;20.17;;
3006;SDS011;1513;47.650;10.720;2023-03-01T02:18:12;55.47;;;19.77;;
3006;SDS011;1513;47.650;10.720;2023-03-01T02:23:10;50.87;;;20.20;;
3006;SDS011;1513;47.650;10.720;2023-03-01T02:28:31;66.00;;;21.23;;
3006;SDS011;1513;47.650;10.720;2023-03-01T02:31:02;56.50;;;20.97;;
3006;SDS011;1513;47.650;10.720;2023-03-01T02:33:51;65.10;;;22.30;;
3006;SDS011;1513;47.650;10.720;2023-03-01T02:36:19;67.20;;;22.00;;
3006;SDS011;1513;47.650;10.720;2023-03-01T02:38:55;60.57;;;22.60;;
3006;SDS011;1513;47.650;10.720;2023-03-01T02:41:23;64.13;;;22.27;;
3006;SDS011;1513;47.650;10.720;2023-03-01T02:43:51;59.80;;;23.33;;
3006;SDS011;1513;47.650;10.720;2023-03-01T02:46:22;64.80;;;23.27;;
3006;SDS011;1513;47.650;10.720;2023-03-01T02:48:51;71.60;;;24.13;;
3006;SDS011;1513;47.650;10.720;2023-03-01T02:57:01;67.87;;;23.30;;
3006;SDS011;1513;47.650;10.720;2023-03-01T02:59:30;71.93;;;23.23;;
3006;SDS011;1513;47.650;10.720;2023-03-01T03:02:06;66.93;;;23.57;;
3006;SDS011;1513;47.650;10.720;2023-03-01T03:05:10;65.57;;;22.67;;
3006;SDS011;1513;47.650;10.720;2023-03-01T03:07:42;61.70;;;24.73;;
3006;SDS011;1513;47.650;10.720;2023-03-01T03:10:12;64.33;;;24.10;;
3006;SDS011;1513;47.650;10.720;2023-03-01T03:12:50;63.60;;;23.70;;
3006;SDS011;1513;47.650;10.720;2023-03-01T03:15:18;76.17;;;25.03;;
3006;SDS011;1513;47.650;10.720;2023-03-01T03:17:45;67.80;;;24.10;;
3006;SDS011;1513;47.650;10.720;2023-03-01T03:20:12;72.63;;;26.10;;
3006;SDS011;1513;47.650;10.720;2023-03-01T03:22:47;69.40;;;25.17;;
3006;SDS011;1513;47.650;10.720;2023-03-01T03:25:16;75.80;;;26.63;;
3006;SDS011;1513;47.650;10.720;2023-03-01T03:27:43;66.10;;;22.00;;
3006;SDS011;1513;47.650;10.720;2023-03-01T03:30:12;72.33;;;22.77;;
3006;SDS011;1513;47.650;10.720;2023-03-01T03:32:43;69.00;;;23.23;;
3006;SDS011;1513;47.650;10.720;2023-03-01T03:35:21;64.93;;;22.73;;
3006;SDS011;1513;47.650;10.720;2023-03-01T03:37:49;64.10;;;22.33;;
3006;SDS011;1513;47.650;10.720;2023-03-01T03:40:32;64.03;;;23.43;;
3006;SDS011;1513;47.650;10.720;2023-03-01T03:43:06;61.27;;;23.73;;
3006;SDS011;1513;47.650;10.720;2023-03-01T03:45:34;71.07;;;24.33;;
3006;SDS011;1513;47.650;10.720;2023-03-01T03:48:02;63.83;;;23.40;;
3006;SDS011;1513;47.650;10.720;2023-03-01T03:50:29;71.93;;;23.90;;
3006;SDS011;1513;47.650;10.720;2023-03-01T03:52:56;69.10;;;25.20;;
3006;SDS011;1513;47.650;10.720;2023-03-01T03:55:22;66.90;;;25.80;;
3006;SDS011;1513;47.650;10.720;2023-03-01T03:57:53;70.40;;;25.03;;
3006;SDS011;1513;47.650;10.720;2023-03-01T04:00:20;86.00;;;26.27;;
3006;SDS011;1513;47.650;10.720;2023-03-01T04:02:49;69.40;;;25.70;;
3006;SDS011;1513;47.650;10.720;2023-03-01T04:05:16;68.73;;;24.37;;
3006;SDS011;1513;47.650;10.720;2023-03-01T04:07:44;82.47;;;25.93;;
3006;SDS011;1513;47.650;10.720;2023-03-01T04:10:11;72.17;;;25.33;;
3006;SDS011;1513;47.650;10.720;2023-03-01T04:12:39;74.90;;;26.37;;
3006;SDS011;1513;47.650;10.720;2023-03-01T04:15:07;75.07;;;26.40;;
3006;SDS011;1513;47.650;10.720;2023-03-01T04:17:40;73.57;;;24.80;;
3006;SDS011;1513;47.650;10.720;2023-03-01T04:20:11;76.00;;;25.50;;
3006;SDS011;1513;47.650;10.720;2023-03-01T04:22:39;85.53;;;26.53;;
3006;SDS011;1513;47.650;10.720;2023-03-01T04:25:06;74.97;;;26.93;;
3006;SDS011;1513;47.650;10.720;2023-03-01T04:27:33;77.70;;;27.40;;
3006;SDS011;1513;47.650;10.720;2023-03-01T04:30:00;84.63;;;26.73;;
3006;SDS011;1513;47.650;10.720;2023-03-01T04:32:28;68.83;;;25.67;;
3006;SDS011;1513;47.650;10.720;2023-03-01T04:34:54;80.47;;;28.97;;
3006;SDS011;1513;47.650;10.720;2023-03-01T04:37:20;75.57;;;26.73;;
3006;SDS011;1513;47.650;10.720;2023-03-01T04:39:47;74.07;;;24.63;;
3006;SDS011;1513;47.650;10.720;2023-03-01T04:42:16;65.63;;;23.60;;
3006;SDS011;1513;47.650;10.720;2023-03-01T04:44:43;75.40;;;26.10;;
3006;SDS011;1513;47.650;10.720;2023-03-01T04:47:10;73.40;;;25.03;;
3006;SDS011;1513;47.650;10.720;2023-03-01T04:49:36;71.03;;;27.07;;
3006;SDS011;1513;47.650;10.720;2023-03-01T04:52:03;73.37;;;26.83;;
3006;SDS011;1513;47.650;10.720;2023-03-01T04:54:30;69.27;;;25.03;;
3006;SDS011;1513;47.650;10.720;2023-03-01T04:56:57;75.60;;;25.13;;
3006;SDS011;1513;47.650;10.720;2023-03-01T04:59:24;70.33;;;24.73;;
3006;SDS011;1513;47.650;10.720;2023-03-01T05:01:51;76.00;;;27.40;;
3006;SDS011;1513;47.650;10.720;2023-03-01T05:04:17;72.13;;;24.50;;
3006;SDS011;1513;47.650;10.720;2023-03-01T05:06:44;63.30;;;24.10;;
3006;SDS011;1513;47.650;10.720;2023-03-01T05:09:10;75.77;;;26.03;;
3006;SDS011;1513;47.650;10.720;2023-03-01T05:11:37;72.87;;;25.20;;
3006;SDS011;1513;47.650;10.720;2023-03-01T05:14:03;67.20;;;24.67;;
3006;SDS011;1513;47.650;10.720;2023-03-01T05:16:30;69.63;;;24.50;;
3006;SDS011;1513;47.650;10.720;2023-03-01T05:18:57;71.27;;;25.20;;
3006;SDS011;1513;47.650;10.720;2023-03-01T05:21:24;73.00;;;25.20;;
3006;SDS011;1513;47.650;10.720;2023-03-01T05:23:51;76.70;;;25.57;;
3006;SDS011;1513;47.650;10.720;2023-03-01T05:26:18;67.97;;;24.70;;
3006;SDS011;1513;47.650;10.720;2023-03-01T05:28:47;72.37;;;24.53;;
3006;SDS011;1513;47.650;10.720;2023-03-01T05:31:13;64.60;;;24.13;;
3006;SDS011;1513;47.650;10.720;2023-03-01T05:33:40;66.67;;;24.20;;
3006;SDS011;1513;47.650;10.720;2023-03-01T05:36:07;64.30;;;24.87;;
3006;SDS011;1513;47.650;10.720;2023-03-01T05:38:34;65.00;;;24.07;;
3006;SDS011;1513;47.650;10.720;2023-03-01T05:41:01;60.13;;;20.77;;
3006;SDS011;1513;47.650;10.720;2023-03-01T05:43:29;64.97;;;24.20;;
3006;SDS011;1513;47.650;10.720;2023-03-01T05:45:59;62.73;;;22.90;;
3006;SDS011;1513;47.650;10.720;2023-03-01T05:48:25;58.57;;;21.40;;
3006;SDS011;1513;47.650;10.720;2023-03-01T05:50:51;68.93;;;23.30;;
3006;SDS011;1513;47.650;10.720;2023-03-01T05:53:19;75.07;;;25.30;;
3006;SDS011;1513;47.650;10.720;2023-03-01T05:55:46;67.67;;;23.73;;
3006;SDS011;1513;47.650;10.720;2023-03-01T05:58:14;65.10;;;24.03;;
3006;SDS011;1513;47.650;10.720;2023-03-01T06:00:45;72.33;;;23.90;;
3006;SDS011;1513;47.650;10.720;2023-03-01T06:03:13;61.27;;;22.43;;
3006;SDS011;1513;47.650;10.720;2023-03-01T06:05:41;61.67;;;23.40;;
3006;SDS011;1513;47.650;10.720;2023-03-01T06:08:08;56.30;;;21.50;;
3006;SDS011;1513;47.650;10.720;2023-03-01T06:10:35;67.33;;;23.27;;
3006;SDS011;1513;47.650;10.720;2023-03-01T06:13:01;70.07;;;22.60;;
3006;SDS011;1513;47.650;10.720;2023-03-01T06:15:28;57.50;;;22.97;;
3006;SDS011;1513;47.650;10.720;2023-03-01T06:17:55;59.70;;;20.80;;
3006;SDS011;1513;47.650;10.720;2023-03-01T06:20:23;54.63;;;21.03;;
3006;SDS011;1513;47.650;10.720;2023-03-01T06:22:50;68.73;;;22.93;;
3006;SDS011;1513;47.650;10.720;2023-03-01T06:25:18;61.00;;;22.67;;
3006;SDS011;1513;47.650;10.720;2023-03-01T06:27:46;66.80;;;23.37;;
3006;SDS011;1513;47.650;10.720;2023-03-01T06:30:14;60.87;;;22.00;;
3006;SDS011;1513;47.650;10.720;2023-03-01T06:36:30;58.23;;;20.10;;
3006;SDS011;1513;47.650;10.720;2023-03-01T06:38:56;60.50;;;22.60;;
3006;SDS011;1513;47.650;10.720;2023-03-01T06:41:22;59.97;;;20.13;;
3006;SDS011;1513;47.650;10.720;2023-03-01T06:43:48;60.73;;;21.20;;
3006;SDS011;1513;47.650;10.720;2023-03-01T06:46:14;56.00;;;20.30;;
3006;SDS011;1513;47.650;10.720;2023-03-01T06:48:41;60.63;;;22.00;;
3006;SDS011;1513;47.650;10.720;2023-03-01T06:51:07;53.50;;;20.17;;
3006;SDS011;1513;47.650;10.720;2023-03-01T06:53:33;55.70;;;19.40;;
3006;SDS011;1513;47.650;10.720;2023-03-01T06:56:00;53.77;;;20.70;;
3006;SDS011;1513;47.650;10.720;2023-03-01T06:58:26;62.40;;;21.40;;
3006;SDS011;1513;47.650;10.720;2023-03-01T07:00:52;53.23;;;20.97;;
3006;SDS011;1513;47.650;10.720;2023-03-01T07:03:19;53.87;;;20.73;;
3006;SDS011;1513;47.650;10.720;2023-03-01T07:05:45;55.53;;;20.40;;
3006;SDS011;1513;47.650;10.720;2023-03-01T07:08:14;59.70;;;21.10;;
3006;SDS011;1513;47.650;10.720;2023-03-01T07:10:40;56.17;;;20.57;;
3006;SDS011;1513;47.650;10.720;2023-03-01T07:13:06;52.90;;;20.07;;
3006;SDS011;1513;47.650;10.720;2023-03-01T07:15:33;58.13;;;20.43;;
3006;SDS011;1513;47.650;10.720;2023-03-01T07:17:59;53.07;;;20.40;;
3006;SDS011;1513;47.650;10.720;2023-03-01T07:20:26;62.97;;;22.53;;
3006;SDS011;1513;47.650;10.720;2023-03-01T07:22:52;63.33;;;21.90;;
3006;SDS011;1513;47.650;10.720;2023-03-01T07:25:20;54.20;;;21.40;;
3006;SDS011;1513;47.650;10.720;2023-03-01T07:27:50;53.57;;;20.87;;
3006;SDS011;1513;47.650;10.720;2023-03-01T07:30:17;55.97;;;21.10;;
3006;SDS011;1513;47.650;10.720;2023-03-01T07:32:44;57.87;;;20.83;;
3006;SDS011;1513;47.650;10.720;2023-03-01T07:35:10;56.93;;;22.07;;
3006;SDS011;1513;47.650;10.720;2023-03-01T07:37:37;56.13;;;19.70;;
3006;SDS011;1513;47.650;10.720;2023-03-01T07:40:03;53.17;;;20.30;;
3006;SDS011;1513;47.650;10.720;2023-03-01T07:42:30;49.77;;;19.80;;
3006;SDS011;1513;47.650;10.720;2023-03-01T07:44:56;60.80;;;23.77;;
3006;SDS011;1513;47.650;10.720;2023-03-01T07:47:22;62.97;;;23.70;;
3006;SDS011;1513;47.650;10.720;2023-03-01T07:49:49;65.00;;;21.77;;
3006;SDS011;1513;47.650;10.720;2023-03-01T07:52:15;57.60;;;22.10;;
3006;SDS011;1513;47.650;10.720;2023-03-01T07:54:44;58.73;;;20.53;;
3006;SDS011;1513;47.650;10.720;2023-03-01T07:57:10;59.63;;;21.70;;
3006;SDS011;1513;47.650;10.720;2023-03-01T07:59:37;57.83;;;21.33;;
3006;SDS011;1513;47.650;10.720;2023-03-01T08:02:03;53.87;;;20.60;;
3006;SDS011;1513;47.650;10.720;2023-03-01T08:04:29;53.30;;;20.03;;
3006;SDS011;1513;47.650;10.720;2023-03-01T08:06:56;55.10;;;20.77;;
3006;SDS011;1513;47.650;10.720;2023-03-01T08:09:23;61.97;;;21.63;;
3006;SDS011;1513;47.650;10.720;2023-03-01T08:11:50;48.60;;;19.37;;
3006;SDS011;1513;47.650;10.720;2023-03-01T08:14:16;49.17;;;19.30;;
3006;SDS011;1513;47.650;10.720;2023-03-01T08:16:42;43.50;;;19.30;;
3006;SDS011;1513;47.650;10.720;2023-03-01T08:19:09;42.23;;;18.30;;
3006;SDS011;1513;47.650;10.720;2023-03-01T08:21:37;45.50;;;19.53;;
3006;SDS011;1513;47.650;10.720;2023-03-01T08:24:03;51.60;;;18.70;;
3006;SDS011;1513;47.650;10.720;2023-03-01T08:26:31;51.27;;;18.00;;
3006;SDS011;1513;47.650;10.720;2023-03-01T08:28:59;51.03;;;18.13;;
3006;SDS011;1513;47.650;10.720;2023-03-01T08:31:27;50.27;;;19.50;;
3006;SDS011;1513;47.650;10.720;2023-03-01T08:34:01;47.40;;;16.83;;
3006;SDS011;1513;47.650;10.720;2023-03-01T08:36:31;41.40;;;15.43;;
3006;SDS011;1513;47.650;10.720;2023-03-01T08:38:59;43.40;;;15.77;;
3006;SDS011;1513;47.650;10.720;2023-03-01T08:41:25;40.70;;;15.57;;
3006;SDS011;1513;47.650;10.720;2023-03-01T08:43:53;46.83;;;17.40;;
3006;SDS011;1513;47.650;10.720;2023-03-01T08:46:24;56.13;;;19.93;;
3006;SDS011;1513;47.650;10.720;2023-03-01T08:48:51;50.07;;;19.20;;
3006;SDS011;1513;47.650;10.720;2023-03-01T08:51:18;42.77;;;16.47;;
3006;SDS011;1513;47.650;10.720;2023-03-01T08:53:46;47.53;;;17.63;;
3006;SDS011;1513;47.650;10.720;2023-03-01T08:56:12;43.07;;;17.17;;
3006;SDS011;1513;47.650;10.720;2023-03-01T08:58:39;45.27;;;18.00;;
3006;SDS011;1513;47.650;10.720;2023-03-01T09:01:09;45.63;;;18.03;;
3006;SDS011;1513;47.650;10.720;2023-03-01T09:03:36;48.93;;;18.80;;
3006;SDS011;1513;47.650;10.720;2023-03-01T09:06:03;43.90;;;18.33;;
3006;SDS011;1513;47.650;10.720;2023-03-01T09:08:30;47.30;;;19.50;;
3006;SDS011;1513;47.650;10.720;2023-03-01T09:10:56;48.90;;;18.53;;
3006;SDS011;1513;47.650;10.720;2023-03-01T09:13:23;50.03;;;17.23;;
3006;SDS011;1513;47.650;10.720;2023-03-01T09:15:50;48.73;;;20.67;;
3006;SDS011;1513;47.650;10.720;2023-03-01T09:18:17;52.57;;;19.03;;
3006;SDS011;1513;47.650;10.720;2023-03-01T09:20:46;55.33;;;21.70;;
3006;SDS011;1513;47.650;10.720;2023-03-01T09:23:12;42.47;;;17.47;;
3006;SDS011;1513;47.650;10.720;2023-03-01T09:25:38;40.67;;;17.60;;
3006;SDS011;1513;47.650;10.720;2023-03-01T09:28:05;59.17;;;19.77;;
3006;SDS011;1513;47.650;10.720;2023-03-01T09:30:31;38.87;;;17.50;;
3006;SDS011;1513;47.650;10.720;2023-03-01T09:32:57;40.93;;;17.73;;
3006;SDS011;1513;47.650;10.720;2023-03-01T09:35:23;39.13;;;17.90;;
3006;SDS011;1513;47.650;10.720;2023-03-01T09:37:50;44.00;;;18.00;;
3006;SDS011;1513;47.650;10.720;2023-03-01T09:40:19;45.23;;;17.17;;
3006;SDS011;1513;47.650;10.720;2023-03-01T09:45:38;42.73;;;19.17;;
3006;SDS011;1513;47.650;10.720;2023-03-01T09:48:10;45.63;;;18.00;;
3006;SDS011;1513;47.650;10.720;2023-03-01T09:50:42;50.47;;;18.20;;
3006;SDS011;1513;47.650;10.720;2023-03-01T09:53:19;43.03;;;17.73;;
3006;SDS011;1513;47.650;10.720;2023-03-01T09:55:59;40.53;;;17.57;;
3006;SDS011;1513;47.650;10.720;2023-03-01T10:04:01;39.73;;;17.60;;
3006;SDS011;1513;47.650;10.720;2023-03-01T10:06:31;45.60;;;19.70;;
3006;SDS011;1513;47.650;10.720;2023-03-01T10:08:58;42.67;;;18.40;;
3006;SDS011;1513;47.650;10.720;2023-03-01T10:11:39;47.30;;;18.43;;
3006;SDS011;1513;47.650;10.720;2023-03-01T10:17:06;41.50;;;18.00;;
3006;SDS011;1513;47.650;10.720;2023-03-01T10:19:41;47.13;;;18.83;;
3006;SDS011;1513;47.650;10.720;2023-03-01T10:22:16;40.10;;;17.17;;
3006;SDS011;1513;47.650;10.720;2023-03-01T10:24:46;41.77;;;17.63;;
3006;SDS011;1513;47.650;10.720;2023-03-01T10:27:22;47.70;;;18.10;;
3006;SDS011;1513;47.650;10.720;2023-03-01T10:32:31;38.40;;;16.30;;
3006;SDS011;1513;47.650;10.720;2023-03-01T10:34:58;39.90;;;16.97;;
3006;SDS011;1513;47.650;10.720;2023-03-01T10:37:25;43.93;;;18.13;;
3006;SDS011;1513;47.650;10.720;2023-03-01T10:42:45;39.00;;;16.27;;
3006;SDS011;1513;47.650;10.720;2023-03-01T10:48:17;42.50;;;17.10;;
3006;SDS011;1513;47.650;10.720;2023-03-01T10:50:47;35.63;;;15.53;;
3006;SDS011;1513;47.650;10.720;2023-03-01T10:53:35;49.53;;;20.27;;
3006;SDS011;1513;47.650;10.720;2023-03-01T10:56:07;39.43;;;18.70;;
3006;SDS011;1513;47.650;10.720;2023-03-01T10:58:39;49.83;;;18.97;;
3006;SDS011;1513;47.650;10.720;2023-03-01T11:03:42;42.47;;;16.67;;
3006;SDS011;1513;47.650;10.720;2023-03-01T11:13:50;42.33;;;16.00;;
3006;SDS011;1513;47.650;10.720;2023-03-01T11:16:35;38.37;;;16.63;;
3006;SDS011;1513;47.650;10.720;2023-03-01T11:21:37;39.47;;;17.50;;
3006;SDS011;1513;47.650;10.720;2023-03-01T11:24:06;40.27;;;16.73;;
3006;SDS011;1513;47.650;10.720;2023-03-01T11:26:38;34.07;;;15.50;;
3006;SDS011;1513;47.650;10.720;2023-03-01T11:29:13;42.53;;;16.93;;
3006;SDS011;1513;47.650;10.720;2023-03-01T11:32:02;39.40;;;16.80;;
3006;SDS011;1513;47.650;10.720;2023-03-01T11:45:39;36.57;;;16.07;;
3006;SDS011;1513;47.650;10.720;2023-03-01T11:48:31;39.60;;;17.40;;
3006;SDS011;1513;47.650;10.720;2023-03-01T11:51:20;35.27;;;16.00;;
3006;SDS011;1513;47.650;10.720;2023-03-01T11:56:25;40.20;;;16.97;;
3006;SDS011;1513;47.650;10.720;2023-03-01T12:07:08;42.50;;;17.80;;
3006;SDS011;1513;47.650;10.720;2023-03-01T12:09:48;42.23;;;18.27;;
3006;SDS011;1513;47.650;10.720;2023-03-01T12:12:46;42.43;;;18.70;;
3006;SDS011;1513;47.650;10.720;2023-03-01T12:18:39;42.43;;;16.43;;
3006;SDS011;1513;47.650;10.720;2023-03-01T12:23:45;37.77;;;17.33;;
3006;SDS011;1513;47.650;10.720;2023-03-01T12:32:00;41.23;;;17.93;;
3006;SDS011;1513;47.650;10.720;2023-03-01T12:39:49;38.70;;;17.50;;
3006;SDS011;1513;47.650;10.720;2023-03-01T12:45:05;35.23;;;15.20;;
3006;SDS011;1513;47.650;10.720;2023-03-01T12:50:42;40.27;;;16.87;;
3006;SDS011;1513;47.650;10.720;2023-03-01T12:53:28;40.10;;;17.67;;
3006;SDS011;1513;47.650;10.720;2023-03-01T12:56:06;41.30;;;18.10;;
3006;SDS011;1513;47.650;10.720;2023-03-01T13:01:34;40.23;;;18.20;;
3006;SDS011;1513;47.650;10.720;2023-03-01T13:10:21;39.93;;;17.00;;
3006;SDS011;1513;47.650;10.720;2023-03-01T13:13:08;43.63;;;18.37;;
3006;SDS011;1513;47.650;10.720;2023-03-01T13:15:44;55.67;;;18.90;;
3006;SDS011;1513;47.650;10.720;2023-03-01T13:20:48;39.20;;;17.13;;
3006;SDS011;1513;47.650;10.720;2023-03-01T13:25:59;39.73;;;18.20;;
3006;SDS011;1513;47.650;10.720;2023-03-01T13:31:56;59.73;;;24.57;;
3006;SDS011;1513;47.650;10.720;2023-03-01T13:33:58;45.60;;;19.67;;
3006;SDS011;1513;47.650;10.720;2023-03-01T13:49:31;43.63;;;19.40;;
3006;SDS011;1513;47.650;10.720;2023-03-01T13:57:41;47.03;;;18.53;;
3006;SDS011;1513;47.650;10.720;2023-03-01T14:00:45;40.43;;;17.87;;
3006;SDS011;1513;47.650;10.720;2023-03-01T14:05:35;45.27;;;17.67;;
3006;SDS011;1513;47.650;10.720;2023-03-01T14:08:17;45.37;;;18.10;;
3006;SDS011;1513;47.650;10.720;2023-03-01T14:13:41;45.13;;;18.17;;
3006;SDS011;1513;47.650;10.720;2023-03-01T14:19:00;43.53;;;17.87;;
3006;SDS011;1513;47.650;10.720;2023-03-01T14:21:45;44.60;;;18.37;;
3006;SDS011;1513;47.650;10.720;2023-03-01T14:24:16;51.30;;;18.27;;
3006;SDS011;1513;47.650;10.720;2023-03-01T14:26:47;45.80;;;18.90;;
3006;SDS011;1513;47.650;10.720;2023-03-01T14:29:33;45.77;;;17.23;;
3006;SDS011;1513;47.650;10.720;2023-03-01T14:32:34;50.27;;;18.93;;
3006;SDS011;1513;47.650;10.720;2023-03-01T14:34:54;43.87;;;18.27;;
3006;SDS011;1513;47.650;10.720;2023-03-01T14:37:25;41.33;;;18.37;;
3006;SDS011;1513;47.650;10.720;2023-03-01T14:39:53;52.73;;;19.63;;
3006;SDS011;1513;47.650;10.720;2023-03-01T14:42:20;42.67;;;18.00;;
3006;SDS011;1513;47.650;10.720;2023-03-01T14:44:49;50.30;;;19.13;;
3006;SDS011;1513;47.650;10.720;2023-03-01T14:49:52;52.13;;;21.93;;
3006;SDS011;1513;47.650;10.720;2023-03-01T14:52:23;50.73;;;19.67;;
3006;SDS011;1513;47.650;10.720;2023-03-01T14:55:06;45.90;;;20.20;;
3006;SDS011;1513;47.650;10.720;2023-03-01T14:57:42;44.27;;;20.13;;
3006;SDS011;1513;47.650;10.720;2023-03-01T15:00:10;53.67;;;21.57;;
3006;SDS011;1513;47.650;10.720;2023-03-01T15:02:47;47.97;;;18.57;;
3006;SDS011;1513;47.650;10.720;2023-03-01T15:05:15;51.63;;;19.47;;
3006;SDS011;1513;47.650;10.720;2023-03-01T15:07:47;54.90;;;18.60;;
3006;SDS011;1513;47.650;10.720;2023-03-01T15:10:24;44.63;;;19.53;;
3006;SDS011;1513;47.650;10.720;2023-03-01T15:12:52;54.30;;;21.10;;
3006;SDS011;1513;47.650;10.720;2023-03-01T15:15:20;54.63;;;20.60;;
3006;SDS011;1513;47.650;10.720;2023-03-01T15:17:54;51.20;;;19.13;;
3006;SDS011;1513;47.650;10.720;2023-03-01T15:20:23;50.17;;;18.83;;
3006;SDS011;1513;47.650;10.720;2023-03-01T15:22:54;53.50;;;19.80;;
3006;SDS011;1513;47.650;10.720;2023-03-01T15:25:22;51.87;;;21.47;;
3006;SDS011;1513;47.650;10.720;2023-03-01T15:27:51;58.87;;;22.80;;
3006;SDS011;1513;47.650;10.720;2023-03-01T15:30:27;86.90;;;27.93;;
3006;SDS011;1513;47.650;10.720;2023-03-01T15:35:57;54.00;;;19.40;;
3006;SDS011;1513;47.650;10.720;2023-03-01T15:41:29;60.80;;;24.17;;
3006;SDS011;1513;47.650;10.720;2023-03-01T15:43:57;62.10;;;23.80;;
3006;SDS011;1513;47.650;10.720;2023-03-01T15:48:58;135.63;;;43.77;;
3006;SDS011;1513;47.650;10.720;2023-03-01T15:51:36;122.93;;;42.83;;
3006;SDS011;1513;47.650;10.720;2023-03-01T15:54:04;178.07;;;63.80;;
3006;SDS011;1513;47.650;10.720;2023-03-01T15:56:34;128.90;;;44.23;;
3006;SDS011;1513;47.650;10.720;2023-03-01T15:59:01;121.40;;;44.37;;
3006;SDS011;1513;47.650;10.720;2023-03-01T16:01:28;68.40;;;26.17;;
3006;SDS011;1513;47.650;10.720;2023-03-01T16:03:54;58.97;;;21.63;;
3006;SDS011;1513;47.650;10.720;2023-03-01T16:06:21;72.13;;;25.67;;
3006;SDS011;1513;47.650;10.720;2023-03-01T16:08:48;63.27;;;22.37;;
3006;SDS011;1513;47.650;10.720;2023-03-01T16:11:17;59.17;;;21.33;;
3006;SDS011;1513;47.650;10.720;2023-03-01T16:13:44;63.43;;;23.83;;
3006;SDS011;1513;47.650;10.720;2023-03-01T16:16:11;65.17;;;23.57;;
3006;SDS011;1513;47.650;10.720;2023-03-01T16:18:40;58.30;;;21.93;;
3006;SDS011;1513;47.650;10.720;2023-03-01T16:21:13;71.77;;;23.60;;
3006;SDS011;1513;47.650;10.720;2023-03-01T16:23:47;68.23;;;23.70;;
3006;SDS011;1513;47.650;10.720;2023-03-01T16:26:14;65.30;;;25.10;;
3006;SDS011;1513;47.650;10.720;2023-03-01T16:28:41;68.80;;;25.30;;
3006;SDS011;1513;47.650;10.720;2023-03-01T16:31:08;64.93;;;23.17;;
3006;SDS011;1513;47.650;10.720;2023-03-01T16:33:35;68.33;;;25.37;;
3006;SDS011;1513;47.650;10.720;2023-03-01T16:36:08;67.40;;;23.27;;
3006;SDS011;1513;47.650;10.720;2023-03-01T16:38:36;62.17;;;21.80;;
3006;SDS011;1513;47.650;10.720;2023-03-01T16:41:04;55.90;;;22.40;;
3006;SDS011;1513;47.650;10.720;2023-03-01T16:43:30;65.80;;;24.57;;
3006;SDS011;1513;47.650;10.720;2023-03-01T16:45:57;69.37;;;25.70;;
3006;SDS011;1513;47.650;10.720;2023-03-01T16:48:24;62.97;;;24.57;;
3006;SDS011;1513;47.650;10.720;2023-03-01T16:50:57;61.80;;;24.77;;
3006;SDS011;1513;47.650;10.720;2023-03-01T16:53:24;93.33;;;30.47;;
3006;SDS011;1513;47.650;10.720;2023-03-01T16:55:54;70.87;;;26.90;;
3006;SDS011;1513;47.650;10.720;2023-03-01T16:58:24;79.40;;;27.67;;
3006;SDS011;1513;47.650;10.720;2023-03-01T17:00:51;77.70;;;29.15;;
3006;SDS011;1513;47.650;10.720;2023-03-01T17:03:19;57.70;;;24.47;;
3006;SDS011;1513;47.650;10.720;2023-03-01T17:05:46;63.00;;;24.60;;
3006;SDS011;1513;47.650;10.720;2023-03-01T17:08:12;71.90;;;26.80;;
3006;SDS011;1513;47.650;10.720;2023-03-01T17:10:39;73.73;;;27.50;;
3006;SDS011;1513;47.650;10.720;2023-03-01T17:13:07;75.20;;;29.00;;
3006;SDS011;1513;47.650;10.720;2023-03-01T17:15:34;74.47;;;26.30;;
3006;SDS011;1513;47.650;10.720;2023-03-01T17:18:05;69.73;;;26.30;;
3006;SDS011;1513;47.650;10.720;2023-03-01T17:20:32;66.90;;;23.87;;